createdAt,value
2023-04-28T00:01:13.815Z,3.53
2023-04-28T00:03:40.405Z,3.87
2023-04-28T00:06:06.979Z,3.40
2023-04-28T00:08:33.413Z,2.93
2023-04-28T00:11:00.594Z,3.13
2023-04-28T00:13:27.204Z,4.20
2023-04-28T00:15:54.200Z,3.13
2023-04-28T00:18:21.067Z,3.87
2023-04-28T00:20:49.293Z,4.70
2023-04-28T00:23:15.924Z,3.30
2023-04-28T00:25:42.283Z,3.00
2023-04-28T00:28:08.654Z,3.67
2023-04-28T00:30:34.973Z,3.70
2023-04-28T00:33:01.337Z,3.87
2023-04-28T00:35:27.782Z,3.00
2023-04-28T00:37:54.117Z,3.80
2023-04-28T00:40:21.017Z,3.67
2023-04-28T00:42:47.419Z,3.90
2023-04-28T00:45:13.790Z,3.70
2023-04-28T00:47:42.127Z,3.87
2023-04-28T00:50:10.389Z,3.50
2023-04-28T00:52:38.288Z,3.30
2023-04-28T00:55:05.486Z,3.60
2023-04-28T00:57:32.154Z,3.70
2023-04-28T00:59:58.511Z,3.70
2023-04-28T01:02:26.319Z,3.80
2023-04-28T01:04:54.289Z,4.00
2023-04-28T01:07:21.142Z,4.27
2023-04-28T01:09:47.871Z,3.57
2023-04-28T01:12:14.430Z,3.93
2023-04-28T01:14:41.004Z,3.17
2023-04-28T01:17:08.586Z,4.20
2023-04-28T01:19:34.968Z,3.47
2023-04-28T01:22:01.401Z,3.87
2023-04-28T01:24:27.734Z,4.33
2023-04-28T01:26:54.125Z,4.17
2023-04-28T01:29:20.506Z,4.07
2023-04-28T01:31:47.043Z,3.70
2023-04-28T01:34:13.675Z,4.07
2023-04-28T01:36:40.434Z,4.60
2023-04-28T01:39:06.904Z,4.40
2023-04-28T01:41:36.416Z,4.20
2023-04-28T01:44:03.863Z,4.00
2023-04-28T01:46:30.265Z,4.40
2023-04-28T01:48:56.689Z,4.70
2023-04-28T01:51:23.020Z,5.60
2023-04-28T01:53:49.455Z,6.00
2023-04-28T01:56:15.897Z,5.70
2023-04-28T01:58:42.269Z,5.17
2023-04-28T02:01:08.669Z,5.33
2023-04-28T02:03:35.355Z,5.00
2023-04-28T02:06:01.817Z,4.90
2023-04-28T02:08:28.142Z,5.53
2023-04-28T02:10:54.598Z,5.17
2023-04-28T02:13:20.926Z,5.33
2023-04-28T02:15:47.280Z,5.40
2023-04-28T02:18:13.655Z,4.83
2023-04-28T02:20:40.737Z,5.60
2023-04-28T02:23:07.100Z,5.10
2023-04-28T02:25:33.437Z,5.30
2023-04-28T02:27:59.784Z,5.73
2023-04-28T02:30:26.203Z,4.80
2023-04-28T02:32:52.555Z,5.80
2023-04-28T02:35:19.145Z,5.00
2023-04-28T02:37:46.382Z,5.90
2023-04-28T02:40:13.117Z,5.80
2023-04-28T02:42:39.465Z,6.00
2023-04-28T02:45:06.561Z,5.80
2023-04-28T02:47:32.936Z,6.30
2023-04-28T02:49:59.301Z,6.03
2023-04-28T02:52:25.651Z,6.10
2023-04-28T02:54:54.523Z,5.43
2023-04-28T02:57:21.144Z,5.80
2023-04-28T02:59:47.469Z,6.03
2023-04-28T03:02:13.849Z,6.37
2023-04-28T03:04:40.211Z,5.90
2023-04-28T03:07:06.753Z,7.33
2023-04-28T03:09:33.194Z,5.77
2023-04-28T03:11:59.523Z,6.60
2023-04-28T03:14:25.849Z,5.47
2023-04-28T03:16:52.300Z,5.80
2023-04-28T03:19:18.653Z,6.27
2023-04-28T03:21:44.996Z,6.70
2023-04-28T03:24:11.332Z,6.47
2023-04-28T03:26:37.706Z,6.53
2023-04-28T03:29:04.056Z,6.57
2023-04-28T03:31:30.461Z,7.10
2023-04-28T03:33:56.893Z,6.40
2023-04-28T03:36:23.211Z,6.40
2023-04-28T03:38:49.550Z,6.90
2023-04-28T03:41:15.877Z,6.47
2023-04-28T03:43:42.193Z,7.03
2023-04-28T03:46:08.626Z,5.83
2023-04-28T03:48:34.989Z,6.87
2023-04-28T03:51:01.325Z,5.80
2023-04-28T03:53:27.821Z,7.33
2023-04-28T03:55:54.408Z,6.63
2023-04-28T03:58:20.887Z,6.60
2023-04-28T04:00:47.248Z,6.70
2023-04-28T04:03:13.788Z,6.60
2023-04-28T04:05:41.402Z,6.33
2023-04-28T04:08:07.824Z,6.60
2023-04-28T04:10:34.192Z,6.50
2023-04-28T04:13:00.527Z,6.40
2023-04-28T04:15:26.929Z,6.53
2023-04-28T04:17:53.436Z,7.57
2023-04-28T04:20:19.985Z,7.30
2023-04-28T04:22:46.308Z,7.37
2023-04-28T04:25:12.766Z,6.93
2023-04-28T04:27:39.218Z,6.60
2023-04-28T04:30:06.460Z,8.00
2023-04-28T04:32:32.889Z,7.73
2023-04-28T04:34:59.274Z,7.20
2023-04-28T04:37:25.665Z,7.83
2023-04-28T04:39:52.034Z,8.23
2023-04-28T04:42:25.300Z,7.07
2023-04-28T04:44:52.434Z,7.70
2023-04-28T04:47:19.070Z,7.90
2023-04-28T04:49:45.453Z,8.27
2023-04-28T04:52:11.870Z,7.37
2023-04-28T04:54:38.254Z,6.63
2023-04-28T04:57:04.672Z,6.60
2023-04-28T04:59:31.005Z,7.27
2023-04-28T05:01:57.453Z,7.13
2023-04-28T05:04:24.088Z,5.80
2023-04-28T05:06:51.434Z,6.57
2023-04-28T05:09:17.815Z,6.90
2023-04-28T05:11:44.186Z,6.57
2023-04-28T05:14:10.675Z,5.80
2023-04-28T05:16:37.464Z,5.77
2023-04-28T05:19:04.621Z,5.60
2023-04-28T05:21:31.041Z,6.30
2023-04-28T05:23:57.414Z,7.73
2023-04-28T05:26:23.814Z,7.00
2023-04-28T05:28:50.276Z,6.43
2023-04-28T05:31:16.708Z,7.50
2023-04-28T05:33:43.116Z,8.60
2023-04-28T05:36:09.794Z,8.50
2023-04-28T05:38:36.349Z,12.10
2023-04-28T05:41:02.719Z,10.00
2023-04-28T05:43:29.107Z,10.83
2023-04-28T05:45:55.670Z,10.80
2023-04-28T05:48:22.036Z,8.93
2023-04-28T05:50:48.427Z,9.43
2023-04-28T05:53:14.788Z,7.30
2023-04-28T05:55:41.187Z,8.00
2023-04-28T05:58:08.036Z,8.93
2023-04-28T06:00:34.500Z,7.27
2023-04-28T06:03:01.136Z,7.13
2023-04-28T06:05:28.266Z,7.00
2023-04-28T06:07:56.049Z,5.37
2023-04-28T06:10:23.518Z,5.47
2023-04-28T06:12:49.860Z,5.80
2023-04-28T06:15:16.408Z,7.10
2023-04-28T06:17:42.845Z,6.40
2023-04-28T06:20:11.085Z,6.83
2023-04-28T06:22:37.605Z,5.70
2023-04-28T06:25:04.263Z,6.30
2023-04-28T06:27:32.713Z,6.67
2023-04-28T06:29:59.510Z,6.30
2023-04-28T06:32:26.300Z,5.60
2023-04-28T06:34:52.657Z,6.53
2023-04-28T06:37:18.995Z,6.77
2023-04-28T06:39:45.345Z,5.97
2023-04-28T06:42:11.648Z,6.97
2023-04-28T06:44:37.963Z,5.93
2023-04-28T06:47:04.516Z,5.97
2023-04-28T06:49:31.245Z,6.57
2023-04-28T06:51:57.628Z,6.00
2023-04-28T06:54:23.995Z,6.00
2023-04-28T06:56:50.395Z,6.90
2023-04-28T06:59:16.781Z,5.87
2023-04-28T07:01:43.285Z,6.70
2023-04-28T07:04:09.864Z,6.00
2023-04-28T07:06:37.956Z,6.77
2023-04-28T07:09:04.541Z,6.97
2023-04-28T07:11:33.238Z,6.50
2023-04-28T07:13:59.572Z,6.10
2023-04-28T07:16:26.234Z,6.00
2023-04-28T07:18:52.582Z,5.87
2023-04-28T07:21:18.941Z,6.33
2023-04-28T07:23:45.905Z,6.70
2023-04-28T07:26:14.693Z,6.40
2023-04-28T07:28:41.192Z,6.37
2023-04-28T07:31:07.534Z,5.30
2023-04-28T07:33:33.869Z,5.90
2023-04-28T07:36:00.261Z,5.30
2023-04-28T07:38:26.999Z,5.50
2023-04-28T07:40:53.514Z,5.40
2023-04-28T07:43:20.397Z,5.20
2023-04-28T07:45:48.969Z,5.40
2023-04-28T07:48:16.020Z,5.03
2023-04-28T07:50:42.559Z,5.57
2023-04-28T07:53:09.179Z,6.23
2023-04-28T07:55:35.636Z,5.77
2023-04-28T07:58:02.126Z,5.80
2023-04-28T08:00:28.460Z,6.20
2023-04-28T08:02:55.090Z,6.40
2023-04-28T08:05:21.677Z,6.57
2023-04-28T08:07:48.173Z,5.33
2023-04-28T08:10:14.589Z,5.70
2023-04-28T08:12:41.105Z,6.00
2023-04-28T08:15:09.540Z,4.80
2023-04-28T08:17:35.988Z,5.30
2023-04-28T08:20:02.555Z,5.80
2023-04-28T08:22:28.960Z,5.40
2023-04-28T08:24:55.341Z,5.40
2023-04-28T08:27:23.463Z,5.60
2023-04-28T08:29:50.081Z,5.77
2023-04-28T08:32:16.632Z,6.23
2023-04-28T08:34:42.987Z,6.80
2023-04-28T08:37:09.529Z,6.33
2023-04-28T08:39:35.874Z,6.63
2023-04-28T08:42:05.691Z,6.60
2023-04-28T08:44:40.110Z,7.07
2023-04-28T08:47:14.230Z,6.20
2023-04-28T08:49:41.085Z,7.23
2023-04-28T08:52:17.418Z,6.97
2023-04-28T08:54:44.460Z,7.20
2023-04-28T08:57:11.154Z,6.50
2023-04-28T08:59:41.631Z,6.30
2023-04-28T09:02:08.943Z,7.10
2023-04-28T09:04:36.146Z,6.90
2023-04-28T09:07:02.758Z,6.97
2023-04-28T09:09:32.672Z,6.33
2023-04-28T09:12:03.802Z,6.03
2023-04-28T09:14:32.949Z,6.57
2023-04-28T09:16:59.279Z,7.27
2023-04-28T09:19:34.213Z,6.37
2023-04-28T09:22:05.609Z,6.10
2023-04-28T09:24:42.768Z,6.63
2023-04-28T09:27:11.674Z,7.77
2023-04-28T09:29:39.204Z,5.67
2023-04-28T09:32:22.533Z,6.17
2023-04-28T09:34:56.387Z,6.03
2023-04-28T09:37:24.990Z,5.70
2023-04-28T09:39:53.638Z,6.00
2023-04-28T09:42:39.496Z,5.90
2023-04-28T09:45:08.056Z,6.33
2023-04-28T09:47:37.269Z,5.83
2023-04-28T09:50:06.525Z,6.30
2023-04-28T09:52:34.826Z,6.43
2023-04-28T09:55:06.128Z,6.33
2023-04-28T09:57:34.234Z,6.00
2023-04-28T10:00:02.382Z,6.63
2023-04-28T10:04:59.052Z,8.37
2023-04-28T10:07:26.599Z,7.80
2023-04-28T10:09:53.640Z,7.30
2023-04-28T10:12:21.675Z,6.73
2023-04-28T10:14:58.472Z,7.70
2023-04-28T10:17:29.395Z,7.07
2023-04-28T10:19:56.982Z,7.27
2023-04-28T10:23:10.769Z,7.40
2023-04-28T10:25:38.583Z,8.10
2023-04-28T10:28:07.137Z,7.20
2023-04-28T10:30:34.084Z,7.00
2023-04-28T10:33:16.025Z,6.80
2023-04-28T10:35:44.577Z,6.60
2023-04-28T10:38:19.060Z,6.87
2023-04-28T10:40:50.149Z,7.10
2023-04-28T10:43:25.716Z,7.20
2023-04-28T10:45:56.202Z,6.97
2023-04-28T10:48:46.183Z,6.37
2023-04-28T10:51:15.632Z,7.00
2023-04-28T10:53:45.390Z,6.23
2023-04-28T10:56:12.683Z,6.57
2023-04-28T10:58:45.932Z,6.90
2023-04-28T11:01:21.384Z,7.30
2023-04-28T11:03:48.936Z,7.23
2023-04-28T11:06:34.289Z,7.20
2023-04-28T11:09:03.862Z,7.60
2023-04-28T11:11:33.393Z,7.40
2023-04-28T11:14:34.854Z,7.50
2023-04-28T11:17:03.461Z,7.30
2023-04-28T11:19:35.175Z,7.70
2023-04-28T11:22:04.202Z,7.40
2023-04-28T11:24:31.505Z,7.80
2023-04-28T11:26:58.931Z,7.90
2023-04-28T11:29:36.528Z,7.40
2023-04-28T11:32:10.307Z,8.50
2023-04-28T11:34:37.759Z,8.03
2023-04-28T11:37:06.044Z,7.90
2023-04-28T11:39:33.854Z,7.97
2023-04-28T11:42:02.471Z,8.10
2023-04-28T11:44:31.062Z,8.97
2023-04-28T11:47:00.914Z,8.57
2023-04-28T11:49:29.191Z,8.90
2023-04-28T11:52:14.040Z,8.20
2023-04-28T11:54:43.295Z,9.07
2023-04-28T11:57:20.150Z,8.10
2023-04-28T11:59:47.860Z,8.03
2023-04-28T12:02:16.770Z,8.37
2023-04-28T12:04:44.436Z,8.57
2023-04-28T12:07:16.156Z,9.20
2023-04-28T12:10:09.979Z,8.60
2023-04-28T12:12:49.153Z,9.33
2023-04-28T12:15:19.538Z,8.50
2023-04-28T12:17:47.012Z,8.43
2023-04-28T12:20:35.056Z,8.30
2023-04-28T12:23:02.495Z,8.50
2023-04-28T12:25:29.173Z,9.10
2023-04-28T12:28:07.394Z,8.50
2023-04-28T12:30:36.080Z,8.23
2023-04-28T12:33:02.508Z,9.13
2023-04-28T12:35:29.658Z,8.67
2023-04-28T12:37:58.460Z,8.50
2023-04-28T12:40:24.949Z,9.10
2023-04-28T12:42:51.578Z,9.33
2023-04-28T12:45:18.231Z,8.20
2023-04-28T12:47:44.603Z,8.50
2023-04-28T12:50:11.228Z,7.20
2023-04-28T12:52:37.663Z,7.83
2023-04-28T12:55:04.897Z,9.20
2023-04-28T12:57:31.293Z,7.90
2023-04-28T12:59:57.646Z,7.13
2023-04-28T13:02:24.475Z,7.00
2023-04-28T13:04:51.971Z,7.10
2023-04-28T13:07:19.064Z,7.00
2023-04-28T13:09:47.269Z,7.90
2023-04-28T13:12:14.565Z,7.17
2023-04-28T13:14:40.892Z,7.20
2023-04-28T13:17:07.973Z,6.43
2023-04-28T13:19:34.429Z,7.20
2023-04-28T13:22:01.525Z,7.47
2023-04-28T13:24:27.873Z,6.60
2023-04-28T13:26:54.273Z,5.93
2023-04-28T13:29:20.598Z,6.77
2023-04-28T13:31:47.013Z,6.83
2023-04-28T13:34:17.288Z,6.30
2023-04-28T13:36:44.692Z,7.13
2023-04-28T13:39:11.662Z,6.50
2023-04-28T13:41:38.081Z,6.40
2023-04-28T13:44:04.384Z,5.70
2023-04-28T13:46:31.129Z,7.70
2023-04-28T13:48:58.189Z,6.60
2023-04-28T13:51:24.768Z,6.30
2023-04-28T13:53:51.162Z,5.73
2023-04-28T13:56:17.578Z,5.03
2023-04-28T13:58:43.961Z,5.90
2023-04-28T14:01:10.380Z,4.87
2023-04-28T14:03:37.260Z,4.90
2023-04-28T14:06:04.187Z,5.53
2023-04-28T14:08:31.124Z,4.90
2023-04-28T14:10:57.699Z,4.70
2023-04-28T14:13:26.974Z,4.50
2023-04-28T14:15:58.943Z,4.97
2023-04-28T14:18:26.864Z,4.60
2023-04-28T14:20:54.357Z,5.13
2023-04-28T14:23:24.257Z,4.53
2023-04-28T14:25:55.879Z,4.50
2023-04-28T14:28:22.567Z,3.90
2023-04-28T14:30:49.928Z,3.70
2023-04-28T14:33:16.382Z,4.23
2023-04-28T14:35:42.737Z,4.20
2023-04-28T14:38:09.090Z,4.30
2023-04-28T14:40:35.465Z,4.77
2023-04-28T14:43:01.775Z,4.00
2023-04-28T14:45:28.654Z,4.37
2023-04-28T14:47:55.187Z,3.80
2023-04-28T14:50:21.627Z,3.83
2023-04-28T14:52:48.006Z,4.00
2023-04-28T14:55:14.417Z,5.13
2023-04-28T14:57:40.774Z,6.10
2023-04-28T15:00:07.845Z,5.00
2023-04-28T15:02:34.486Z,4.90
2023-04-28T15:05:01.365Z,5.30
2023-04-28T15:07:31.241Z,5.53
2023-04-28T15:10:00.861Z,5.30
2023-04-28T15:12:30.130Z,5.07
2023-04-28T15:14:56.522Z,4.93
2023-04-28T15:17:23.083Z,7.23
2023-04-28T15:19:49.515Z,5.93
2023-04-28T15:22:15.918Z,6.10
2023-04-28T15:24:42.353Z,5.57
2023-04-28T15:27:08.735Z,5.00
2023-04-28T15:29:35.088Z,5.30
2023-04-28T15:32:01.635Z,4.97
2023-04-28T15:34:28.508Z,5.73
2023-04-28T15:36:55.022Z,4.90
2023-04-28T15:39:21.489Z,5.50
2023-04-28T15:41:47.943Z,5.03
2023-04-28T15:44:14.325Z,6.40
2023-04-28T15:46:40.750Z,5.33
2023-04-28T15:49:08.564Z,5.70
2023-04-28T15:51:34.913Z,6.50
2023-04-28T15:54:01.504Z,7.40
2023-04-28T15:56:28.307Z,6.43
2023-04-28T15:58:54.717Z,6.80
2023-04-28T16:01:21.901Z,6.73
2023-04-28T16:03:48.596Z,6.50
2023-04-28T16:06:15.215Z,6.00
2023-04-28T16:08:41.741Z,6.20
2023-04-28T16:11:10.155Z,6.20
2023-04-28T16:13:37.020Z,5.67
2023-04-28T16:16:04.085Z,6.70
2023-04-28T16:18:30.765Z,6.70
2023-04-28T16:20:57.122Z,7.10
2023-04-28T16:23:23.778Z,7.47
2023-04-28T16:25:50.747Z,7.90
2023-04-28T16:28:18.338Z,8.10
2023-04-28T16:30:44.706Z,6.97
2023-04-28T16:33:11.428Z,8.00
2023-04-28T16:35:37.789Z,7.40
2023-04-28T16:38:04.156Z,8.40
2023-04-28T16:40:30.660Z,8.33
2023-04-28T16:42:57.303Z,9.60
2023-04-28T16:45:23.634Z,9.70
2023-04-28T16:47:50.022Z,9.57
2023-04-28T16:50:17.225Z,9.70
2023-04-28T16:52:43.661Z,10.17
2023-04-28T16:55:10.762Z,8.13
2023-04-28T16:57:37.428Z,10.17
2023-04-28T17:00:06.013Z,8.40
2023-04-28T17:02:33.237Z,9.43
2023-04-28T17:04:59.804Z,9.17
2023-04-28T17:07:26.163Z,9.40
2023-04-28T17:09:52.875Z,10.17
2023-04-28T17:12:20.898Z,10.50
2023-04-28T17:14:47.638Z,10.47
2023-04-28T17:17:13.998Z,10.30
2023-04-28T17:19:41.563Z,9.40
2023-04-28T17:22:08.197Z,9.03
2023-04-28T17:24:34.783Z,9.70
2023-04-28T17:27:02.410Z,8.50
2023-04-28T17:29:28.794Z,8.60
2023-04-28T17:31:55.292Z,7.63
2023-04-28T17:34:21.765Z,6.83
2023-04-28T17:36:48.167Z,5.90
2023-04-28T17:39:16.635Z,7.30
2023-04-28T17:41:43.678Z,7.00
2023-04-28T17:44:10.101Z,7.07
2023-04-28T17:46:38.430Z,8.90
2023-04-28T17:49:05.270Z,6.50
2023-04-28T17:51:32.331Z,6.00
2023-04-28T17:53:59.177Z,5.97
2023-04-28T17:56:25.762Z,6.20
2023-04-28T17:58:52.463Z,7.70
2023-04-28T18:01:18.956Z,6.57
2023-04-28T18:03:45.447Z,6.40
2023-04-28T18:06:13.636Z,5.83
2023-04-28T18:08:40.840Z,6.67
2023-04-28T18:11:08.987Z,6.03
2023-04-28T18:13:35.505Z,7.20
2023-04-28T18:16:04.351Z,7.60
2023-04-28T18:18:33.915Z,8.80
2023-04-28T18:21:02.215Z,6.80
2023-04-28T18:23:30.189Z,7.50
2023-04-28T18:25:56.661Z,7.17
2023-04-28T18:28:23.010Z,7.07
2023-04-28T18:30:49.840Z,6.30
2023-04-28T18:33:22.303Z,6.87
2023-04-28T18:35:58.405Z,5.63
2023-04-28T18:38:24.794Z,5.50
2023-04-28T18:40:51.123Z,6.70
2023-04-28T18:43:17.583Z,6.43
2023-04-28T18:45:44.496Z,7.30
2023-04-28T18:48:11.982Z,6.57
2023-04-28T18:50:38.631Z,6.80
2023-04-28T18:53:05.311Z,7.03
2023-04-28T18:55:34.780Z,6.87
2023-04-28T18:58:04.164Z,7.20
2023-04-28T19:00:31.326Z,6.90
2023-04-28T19:02:57.902Z,7.57
2023-04-28T19:05:24.537Z,8.07
2023-04-28T19:07:50.889Z,8.50
2023-04-28T19:10:17.394Z,7.33
2023-04-28T19:12:43.737Z,8.73
2023-04-28T19:15:10.622Z,7.80
2023-04-28T19:17:37.087Z,8.43
2023-04-28T19:20:03.946Z,8.07
2023-04-28T19:22:37.119Z,8.03
2023-04-28T19:25:05.297Z,7.90
2023-04-28T19:27:33.467Z,9.20
2023-04-28T19:30:01.103Z,8.57
2023-04-28T19:32:28.552Z,8.60
2023-04-28T19:34:55.473Z,8.00
2023-04-28T19:37:22.580Z,7.07
2023-04-28T19:39:50.832Z,7.10
2023-04-28T19:42:18.124Z,6.10
2023-04-28T19:44:45.815Z,5.67
2023-04-28T19:47:12.688Z,6.00
2023-04-28T19:49:41.309Z,5.30
2023-04-28T19:52:10.017Z,7.13
2023-04-28T19:54:38.540Z,5.23
2023-04-28T19:57:04.882Z,5.70
2023-04-28T19:59:31.205Z,6.03
2023-04-28T20:01:57.572Z,6.17
2023-04-28T20:04:24.110Z,6.10
2023-04-28T20:06:50.613Z,6.47
2023-04-28T20:09:17.205Z,7.00
2023-04-28T20:11:43.560Z,7.10
2023-04-28T20:14:10.281Z,7.73
2023-04-28T20:16:36.696Z,7.37
2023-04-28T20:19:03.163Z,6.60
2023-04-28T20:21:29.525Z,6.40
2023-04-28T20:23:56.074Z,7.90
2023-04-28T20:26:22.511Z,7.63
2023-04-28T20:28:50.421Z,7.83
2023-04-28T20:31:16.859Z,7.27
2023-04-28T20:33:43.228Z,7.60
2023-04-28T20:36:10.298Z,9.27
2023-04-28T20:38:37.410Z,8.47
2023-04-28T20:41:04.307Z,9.20
2023-04-28T20:43:30.693Z,9.60
2023-04-28T20:45:57.662Z,10.10
2023-04-28T20:48:24.058Z,8.63
2023-04-28T20:50:53.041Z,9.17
2023-04-28T20:53:19.392Z,8.80
2023-04-28T20:55:45.739Z,8.67
2023-04-28T20:58:12.069Z,8.97
2023-04-28T21:00:40.419Z,8.47
2023-04-28T21:03:07.216Z,7.57
2023-04-28T21:05:33.725Z,7.93
2023-04-28T21:08:00.144Z,8.17
2023-04-28T21:10:27.452Z,7.67
2023-04-28T21:12:54.064Z,8.83
2023-04-28T21:15:20.668Z,8.13
2023-04-28T21:17:47.057Z,8.67
2023-04-28T21:20:14.652Z,7.97
2023-04-28T21:22:41.158Z,7.63
2023-04-28T21:25:08.531Z,7.57
2023-04-28T21:27:34.869Z,9.23
2023-04-28T21:30:01.343Z,10.50
2023-04-28T21:32:27.728Z,10.10
2023-04-28T21:34:54.241Z,10.10
2023-04-28T21:37:20.699Z,10.43
2023-04-28T21:39:47.103Z,11.30
2023-04-28T21:42:13.561Z,13.07
2023-04-28T21:44:40.259Z,12.20
2023-04-28T21:47:06.791Z,12.00
2023-04-28T21:49:33.202Z,11.73
2023-04-28T21:51:59.535Z,9.30
2023-04-28T21:54:25.966Z,9.03
2023-04-28T21:56:52.533Z,13.37
2023-04-28T21:59:19.078Z,13.10
2023-04-28T22:01:45.653Z,14.27
2023-04-28T22:04:12.374Z,12.90
2023-04-28T22:06:39.156Z,13.27
2023-04-28T22:09:05.538Z,12.20
2023-04-28T22:11:32.145Z,11.17
2023-04-28T22:13:58.487Z,12.40
2023-04-28T22:16:25.003Z,15.07
2023-04-28T22:18:51.469Z,12.30
2023-04-28T22:21:19.179Z,13.60
2023-04-28T22:23:45.548Z,13.00
2023-04-28T22:26:11.990Z,12.00
2023-04-28T22:28:38.413Z,13.37
2023-04-28T22:31:04.793Z,14.00
2023-04-28T22:33:32.295Z,12.87
2023-04-28T22:35:59.205Z,11.70
2023-04-28T22:38:25.951Z,13.13
2023-04-28T22:40:52.508Z,13.20
2023-04-28T22:43:18.840Z,14.60
2023-04-28T22:45:48.142Z,15.70
2023-04-28T22:48:14.487Z,15.37
2023-04-28T22:50:41.022Z,15.53
2023-04-28T22:53:08.050Z,16.83
2023-04-28T22:55:34.416Z,16.63
2023-04-28T22:58:00.749Z,17.17
2023-04-28T23:00:27.110Z,15.43
2023-04-28T23:02:53.802Z,17.17
2023-04-28T23:05:20.308Z,17.30
2023-04-28T23:07:46.749Z,15.73
2023-04-28T23:10:14.551Z,16.63
2023-04-28T23:12:41.299Z,14.80
2023-04-28T23:15:08.110Z,14.77
2023-04-28T23:17:34.515Z,14.60
2023-04-28T23:20:00.929Z,13.13
2023-04-28T23:22:27.314Z,14.00
2023-04-28T23:24:53.780Z,14.07
2023-04-28T23:27:20.234Z,13.83
2023-04-28T23:29:46.588Z,14.27
2023-04-28T23:32:12.916Z,13.60
2023-04-28T23:34:41.686Z,14.13
2023-04-28T23:37:08.057Z,14.20
2023-04-28T23:39:34.474Z,13.23
2023-04-28T23:42:02.224Z,15.80
2023-04-28T23:44:28.634Z,13.53
2023-04-28T23:46:56.217Z,15.93
2023-04-28T23:49:23.692Z,15.00
2023-04-28T23:51:50.059Z,13.37
2023-04-28T23:54:16.444Z,14.43
2023-04-28T23:56:42.773Z,14.80
2023-04-28T23:59:09.131Z,15.20
